createdAt,value
2022-07-25T00:01:49.221Z,5.90
2022-07-25T00:04:17.925Z,5.80
2022-07-25T00:06:46.083Z,5.50
2022-07-25T00:09:13.360Z,6.50
2022-07-25T00:11:40.503Z,5.50
2022-07-25T00:14:07.836Z,5.70
2022-07-25T00:16:34.990Z,5.50
2022-07-25T00:19:02.107Z,5.70
2022-07-25T00:21:29.233Z,5.70
2022-07-25T00:23:56.016Z,5.70
2022-07-25T00:26:22.867Z,5.60
2022-07-25T00:28:49.753Z,5.70
2022-07-25T00:31:16.736Z,6.40
2022-07-25T00:33:43.546Z,5.60
2022-07-25T00:36:10.523Z,5.50
2022-07-25T00:38:37.382Z,5.80
2022-07-25T00:41:04.862Z,5.50
2022-07-25T00:43:31.916Z,6.10
2022-07-25T00:45:59.444Z,6.30
2022-07-25T00:48:28.329Z,6.20
2022-07-25T00:50:56.187Z,6.00
2022-07-25T00:53:24.127Z,6.10
2022-07-25T00:55:52.278Z,6.30
2022-07-25T00:58:19.201Z,6.00
2022-07-25T01:00:47.011Z,5.80
2022-07-25T01:03:15.022Z,6.00
2022-07-25T01:05:42.466Z,6.50
2022-07-25T01:08:10.260Z,6.20
2022-07-25T01:10:37.764Z,6.30
2022-07-25T01:13:05.566Z,6.20
2022-07-25T01:15:32.740Z,6.10
2022-07-25T01:17:59.742Z,5.80
2022-07-25T01:20:29.054Z,6.10
2022-07-25T01:22:56.836Z,6.80
2022-07-25T01:25:24.738Z,6.40
2022-07-25T01:27:55.459Z,6.30
2022-07-25T01:32:51.388Z,5.80
2022-07-25T01:35:18.976Z,5.70
2022-07-25T01:37:46.255Z,6.10
2022-07-25T01:40:14.523Z,6.40
2022-07-25T01:42:42.707Z,5.90
2022-07-25T01:45:11.339Z,5.80
2022-07-25T01:47:38.434Z,6.00
2022-07-25T01:50:06.318Z,6.20
2022-07-25T01:52:33.284Z,6.70
2022-07-25T01:55:00.087Z,6.00
2022-07-25T01:57:31.042Z,6.00
2022-07-25T01:59:59.418Z,5.90
2022-07-25T02:02:26.269Z,5.90
2022-07-25T02:04:53.674Z,6.40
2022-07-25T02:07:20.715Z,6.10
2022-07-25T02:09:47.699Z,5.60
2022-07-25T02:12:14.551Z,5.50
2022-07-25T02:14:41.428Z,4.90
2022-07-25T02:17:08.326Z,5.50
2022-07-25T02:19:36.110Z,5.00
2022-07-25T02:22:03.595Z,5.30
2022-07-25T02:24:30.522Z,5.10
2022-07-25T02:26:57.535Z,4.90
2022-07-25T02:29:25.607Z,5.30
2022-07-25T02:31:52.514Z,5.10
2022-07-25T02:34:19.489Z,5.40
2022-07-25T02:36:46.640Z,4.80
2022-07-25T02:39:13.478Z,4.60
2022-07-25T02:41:40.580Z,4.90
2022-07-25T02:44:07.800Z,4.50
2022-07-25T02:46:34.841Z,5.30
2022-07-25T02:49:01.921Z,4.90
2022-07-25T02:51:29.028Z,4.30
2022-07-25T02:53:57.733Z,4.20
2022-07-25T02:56:29.605Z,4.20
2022-07-25T02:58:57.503Z,4.20
2022-07-25T03:01:24.466Z,4.20
2022-07-25T03:03:51.505Z,4.00
2022-07-25T03:06:18.368Z,3.90
2022-07-25T03:08:45.218Z,3.40
2022-07-25T03:11:13.287Z,3.70
2022-07-25T03:13:40.367Z,3.50
2022-07-25T03:16:07.983Z,3.40
2022-07-25T03:18:34.891Z,3.90
2022-07-25T03:21:02.201Z,3.30
2022-07-25T03:23:30.366Z,3.60
2022-07-25T03:25:57.443Z,3.10
2022-07-25T03:28:24.931Z,3.30
2022-07-25T03:30:52.729Z,2.90
2022-07-25T03:33:19.737Z,3.00
2022-07-25T03:35:46.689Z,3.20
2022-07-25T03:38:13.560Z,2.90
2022-07-25T03:40:40.421Z,2.80
2022-07-25T03:43:07.287Z,2.60
2022-07-25T03:45:34.526Z,2.80
2022-07-25T03:48:01.681Z,2.70
2022-07-25T03:50:28.464Z,2.80
2022-07-25T03:52:55.400Z,2.70
2022-07-25T03:55:22.444Z,2.90
2022-07-25T03:57:49.228Z,2.50
2022-07-25T04:00:17.630Z,2.50
2022-07-25T04:02:44.647Z,2.30
2022-07-25T04:05:11.553Z,2.50
2022-07-25T04:07:38.559Z,2.40
2022-07-25T04:10:06.430Z,2.40
2022-07-25T04:12:33.586Z,1.90
2022-07-25T04:15:00.624Z,2.10
2022-07-25T04:17:27.411Z,1.90
2022-07-25T04:19:54.328Z,1.70
2022-07-25T04:22:21.997Z,1.60
2022-07-25T04:24:48.897Z,2.10
2022-07-25T04:27:16.153Z,1.80
2022-07-25T04:29:43.131Z,1.90
2022-07-25T04:32:10.006Z,1.60
2022-07-25T04:34:36.863Z,1.80
2022-07-25T04:37:03.665Z,1.60
2022-07-25T04:39:30.824Z,1.70
2022-07-25T04:41:57.679Z,1.90
2022-07-25T04:44:24.553Z,1.60
2022-07-25T04:46:51.368Z,1.70
2022-07-25T04:49:18.848Z,1.60
2022-07-25T04:51:45.968Z,2.00
2022-07-25T04:54:12.828Z,1.70
2022-07-25T04:56:39.914Z,1.60
2022-07-25T04:59:07.239Z,2.10
2022-07-25T05:01:34.945Z,1.50
2022-07-25T05:04:01.972Z,1.50
2022-07-25T05:06:28.938Z,1.90
2022-07-25T05:08:55.826Z,1.80
2022-07-25T05:11:22.748Z,1.70
2022-07-25T05:13:49.541Z,1.80
2022-07-25T05:16:16.525Z,1.60
2022-07-25T05:18:43.541Z,1.70
2022-07-25T05:21:11.747Z,1.60
2022-07-25T05:23:39.247Z,1.60
2022-07-25T05:26:06.078Z,1.80
2022-07-25T05:28:33.361Z,2.20
2022-07-25T05:31:00.284Z,1.70
2022-07-25T05:33:27.084Z,1.50
2022-07-25T05:35:54.025Z,1.80
2022-07-25T05:38:21.143Z,1.80
2022-07-25T05:40:51.937Z,1.50
2022-07-25T05:43:19.115Z,1.60
2022-07-25T05:45:46.825Z,1.50
2022-07-25T05:48:14.575Z,1.70
2022-07-25T05:50:41.586Z,1.40
2022-07-25T05:53:08.858Z,1.50
2022-07-25T05:55:35.664Z,1.60
2022-07-25T05:58:08.852Z,1.60
2022-07-25T06:00:36.796Z,1.70
2022-07-25T06:03:03.900Z,1.90
2022-07-25T06:05:31.175Z,1.70
2022-07-25T06:07:58.044Z,1.50
2022-07-25T06:10:24.924Z,1.60
2022-07-25T06:12:51.798Z,1.70
2022-07-25T06:15:22.579Z,1.70
2022-07-25T06:17:54.357Z,1.60
2022-07-25T06:20:21.453Z,1.50
2022-07-25T06:22:48.349Z,1.70
2022-07-25T06:25:15.386Z,1.50
2022-07-25T06:27:42.374Z,1.60
2022-07-25T06:30:19.567Z,1.70
2022-07-25T06:32:49.106Z,1.60
2022-07-25T06:35:17.147Z,1.80
2022-07-25T06:37:44.078Z,2.00
2022-07-25T06:40:11.128Z,1.60
2022-07-25T06:42:46.582Z,1.60
2022-07-25T06:45:14.986Z,1.70
2022-07-25T06:47:43.060Z,1.50
2022-07-25T06:50:13.975Z,2.00
2022-07-25T06:52:42.172Z,1.60
2022-07-25T06:55:10.972Z,1.50
2022-07-25T06:57:38.073Z,1.60
2022-07-25T07:00:09.373Z,1.70
2022-07-25T07:03:00.757Z,2.30
2022-07-25T07:05:32.486Z,1.60
2022-07-25T07:08:00.441Z,1.60
2022-07-25T07:10:27.956Z,1.50
2022-07-25T07:13:11.075Z,1.70
2022-07-25T07:15:46.507Z,1.80
2022-07-25T07:18:13.479Z,1.50
2022-07-25T07:20:40.397Z,1.60
2022-07-25T07:23:07.280Z,2.00
2022-07-25T07:25:35.866Z,1.70
2022-07-25T07:28:03.613Z,1.70
2022-07-25T07:30:58.713Z,1.60
2022-07-25T07:33:19.390Z,1.60
2022-07-25T07:35:46.263Z,1.50
2022-07-25T07:38:13.189Z,2.20
2022-07-25T07:40:40.228Z,1.70
2022-07-25T07:43:07.071Z,1.90
2022-07-25T07:45:35.173Z,1.90
2022-07-25T07:48:02.092Z,1.80
2022-07-25T07:50:31.062Z,2.00
2022-07-25T07:52:58.092Z,2.00
2022-07-25T07:55:43.866Z,1.60
2022-07-25T07:58:15.032Z,1.60
2022-07-25T08:00:47.529Z,1.60
2022-07-25T08:03:20.431Z,1.50
2022-07-25T08:05:48.461Z,1.70
2022-07-25T08:08:16.244Z,1.60
2022-07-25T08:10:45.897Z,1.40
2022-07-25T08:13:19.877Z,1.60
2022-07-25T08:15:50.585Z,1.30
2022-07-25T08:18:18.380Z,1.60
2022-07-25T08:20:46.806Z,1.50
2022-07-25T08:23:14.634Z,1.50
2022-07-25T08:25:42.628Z,1.50
2022-07-25T08:28:09.466Z,1.30
2022-07-25T08:30:38.286Z,1.50
2022-07-25T08:33:10.271Z,1.10
2022-07-25T08:35:37.219Z,1.20
2022-07-25T08:38:04.954Z,1.10
2022-07-25T08:40:33.486Z,1.20
2022-07-25T08:43:01.747Z,1.50
2022-07-25T08:45:28.726Z,1.20
2022-07-25T08:47:56.256Z,1.50
2022-07-25T08:50:29.610Z,1.50
2022-07-25T08:53:10.447Z,1.50
2022-07-25T08:55:45.114Z,1.30
2022-07-25T08:58:14.883Z,1.40
2022-07-25T09:00:42.889Z,1.30
2022-07-25T09:03:10.473Z,1.20
2022-07-25T09:05:38.523Z,1.30
2022-07-25T09:08:16.938Z,1.30
2022-07-25T09:10:52.800Z,1.20
2022-07-25T09:13:22.940Z,1.20
2022-07-25T09:15:53.114Z,1.10
2022-07-25T09:18:25.491Z,1.40
2022-07-25T09:21:00.135Z,1.10
2022-07-25T09:23:37.883Z,1.40
2022-07-25T09:26:08.341Z,1.40
2022-07-25T09:28:50.755Z,1.80
2022-07-25T09:31:20.969Z,1.50
2022-07-25T09:33:56.534Z,1.70
2022-07-25T09:36:23.510Z,1.40
2022-07-25T09:39:01.203Z,1.30
2022-07-25T09:41:39.794Z,1.40
2022-07-25T09:44:17.144Z,1.10
2022-07-25T09:46:44.329Z,1.40
2022-07-25T09:49:13.950Z,1.40
2022-07-25T09:51:44.464Z,1.40
2022-07-25T09:56:38.127Z,1.70
2022-07-25T09:59:06.195Z,1.50
2022-07-25T10:02:18.983Z,1.40
2022-07-25T10:04:59.141Z,1.20
2022-07-25T10:07:31.042Z,1.50
2022-07-25T10:09:59.189Z,1.40
2022-07-25T10:12:26.025Z,1.30
2022-07-25T10:15:05.472Z,1.50
2022-07-25T10:17:32.900Z,1.30
2022-07-25T10:20:03.549Z,1.60
2022-07-25T10:23:00.823Z,1.80
2022-07-25T10:25:27.749Z,1.90
2022-07-25T10:28:02.279Z,1.60
2022-07-25T10:30:40.400Z,1.30
2022-07-25T10:33:14.881Z,1.80
2022-07-25T10:35:42.424Z,1.40
2022-07-25T10:38:09.856Z,1.70
2022-07-25T10:40:41.227Z,1.50
2022-07-25T10:43:11.455Z,1.70
2022-07-25T10:45:51.423Z,1.80
2022-07-25T10:48:32.685Z,1.40
2022-07-25T10:51:07.383Z,1.50
2022-07-25T10:53:45.959Z,1.70
2022-07-25T10:56:16.159Z,1.40
2022-07-25T10:59:00.380Z,1.60
2022-07-25T11:01:32.120Z,1.60
2022-07-25T11:04:05.902Z,2.20
2022-07-25T11:06:39.100Z,1.80
2022-07-25T11:09:26.875Z,1.50
2022-07-25T11:11:58.348Z,1.90
2022-07-25T11:14:36.815Z,1.70
2022-07-25T11:17:19.671Z,2.00
2022-07-25T11:19:59.861Z,1.80
2022-07-25T11:22:29.580Z,2.00
2022-07-25T11:24:57.265Z,1.80
2022-07-25T11:27:32.455Z,1.70
2022-07-25T11:30:30.485Z,1.80
2022-07-25T11:33:01.013Z,2.10
2022-07-25T11:35:32.648Z,2.10
2022-07-25T11:38:01.690Z,1.90
2022-07-25T11:40:30.879Z,1.70
2022-07-25T11:42:58.989Z,1.40
2022-07-25T11:45:28.422Z,1.80
2022-07-25T11:48:06.929Z,1.80
2022-07-25T11:50:36.396Z,1.60
2022-07-25T11:53:06.515Z,1.60
2022-07-25T11:55:39.293Z,1.70
2022-07-25T11:58:06.876Z,1.70
2022-07-25T12:00:39.384Z,1.50
2022-07-25T12:03:08.791Z,1.50
2022-07-25T12:05:36.735Z,1.80
2022-07-25T12:08:23.334Z,1.60
2022-07-25T12:10:50.679Z,1.40
2022-07-25T12:13:29.765Z,1.50
2022-07-25T12:15:58.631Z,1.90
2022-07-25T12:18:27.422Z,1.60
2022-07-25T12:20:54.664Z,1.50
2022-07-25T12:23:21.705Z,1.60
2022-07-25T12:25:49.718Z,1.60
2022-07-25T12:28:16.911Z,1.60
2022-07-25T12:30:45.761Z,1.50
2022-07-25T12:33:13.542Z,1.70
2022-07-25T12:35:41.994Z,2.00
2022-07-25T12:38:10.447Z,1.60
2022-07-25T12:40:37.768Z,1.50
2022-07-25T12:43:04.748Z,2.10
2022-07-25T12:45:31.733Z,1.70
2022-07-25T12:47:58.900Z,1.50
2022-07-25T12:50:25.950Z,1.40
2022-07-25T12:52:53.534Z,1.50
2022-07-25T12:55:21.063Z,1.70
2022-07-25T12:57:49.078Z,1.50
2022-07-25T13:00:20.810Z,1.50
2022-07-25T13:02:51.384Z,2.10
2022-07-25T13:05:19.555Z,1.50
2022-07-25T13:07:48.314Z,1.30
2022-07-25T13:10:16.763Z,1.50
2022-07-25T13:12:44.316Z,1.20
2022-07-25T13:15:11.948Z,1.20
2022-07-25T13:17:39.872Z,1.60
2022-07-25T13:20:08.237Z,1.30
2022-07-25T13:22:35.077Z,1.50
2022-07-25T13:25:02.238Z,1.40
2022-07-25T13:27:29.496Z,1.50
2022-07-25T13:29:57.256Z,1.40
2022-07-25T13:32:25.936Z,1.40
2022-07-25T13:34:52.882Z,1.20
2022-07-25T13:37:20.057Z,1.40
2022-07-25T13:39:48.083Z,1.30
2022-07-25T13:42:15.172Z,1.30
2022-07-25T13:44:42.128Z,1.60
2022-07-25T13:47:08.969Z,1.60
2022-07-25T13:49:36.366Z,1.10
2022-07-25T13:52:03.601Z,1.30
2022-07-25T13:54:30.711Z,1.20
2022-07-25T13:56:58.167Z,1.50
2022-07-25T13:59:24.975Z,1.40
2022-07-25T14:01:51.943Z,1.10
2022-07-25T14:04:18.976Z,1.50
2022-07-25T14:06:51.076Z,1.80
2022-07-25T14:09:20.058Z,1.30
2022-07-25T14:11:47.518Z,1.30
2022-07-25T14:14:14.471Z,1.70
2022-07-25T14:16:41.471Z,1.20
2022-07-25T14:19:09.668Z,1.20
2022-07-25T14:21:37.338Z,1.20
2022-07-25T14:24:04.796Z,1.00
2022-07-25T14:26:34.062Z,1.20
2022-07-25T14:29:02.203Z,1.40
2022-07-25T14:31:29.109Z,1.20
2022-07-25T14:33:55.960Z,1.30
2022-07-25T14:36:22.863Z,1.30
2022-07-25T14:38:49.711Z,1.30
2022-07-25T14:41:16.759Z,1.60
2022-07-25T14:43:43.752Z,1.50
2022-07-25T14:46:10.653Z,1.30
2022-07-25T14:48:38.210Z,1.20
2022-07-25T14:51:06.215Z,1.30
2022-07-25T14:53:34.589Z,1.80
2022-07-25T14:56:05.738Z,1.70
2022-07-25T14:58:32.967Z,1.30
2022-07-25T15:01:00.019Z,1.40
2022-07-25T15:03:27.069Z,1.80
2022-07-25T15:05:54.017Z,1.40
2022-07-25T15:08:21.232Z,1.60
2022-07-25T15:10:48.643Z,1.50
2022-07-25T15:13:32.094Z,1.60
2022-07-25T15:16:00.574Z,1.50
2022-07-25T15:18:28.055Z,1.40
2022-07-25T15:20:54.919Z,1.50
2022-07-25T15:23:24.185Z,1.50
2022-07-25T15:26:02.643Z,1.50
2022-07-25T15:28:36.353Z,1.40
2022-07-25T15:31:04.634Z,1.50
2022-07-25T15:33:32.852Z,1.50
2022-07-25T15:36:00.648Z,1.40
2022-07-25T15:38:28.605Z,1.40
2022-07-25T15:40:55.878Z,1.60
2022-07-25T15:43:23.783Z,1.30
2022-07-25T15:45:51.121Z,1.20
2022-07-25T15:48:18.667Z,1.20
2022-07-25T15:50:50.790Z,1.60
2022-07-25T15:53:17.712Z,1.40
2022-07-25T15:55:44.743Z,1.60
2022-07-25T15:58:11.743Z,1.70
2022-07-25T16:00:40.523Z,1.50
2022-07-25T16:03:07.961Z,1.40
2022-07-25T16:05:35.605Z,1.60
2022-07-25T16:08:04.142Z,1.50
2022-07-25T16:10:33.624Z,1.60
2022-07-25T16:13:00.783Z,1.40
2022-07-25T16:15:28.284Z,1.50
2022-07-25T16:18:00.168Z,1.40
2022-07-25T16:20:31.386Z,1.40
2022-07-25T16:22:59.820Z,1.50
2022-07-25T16:25:28.743Z,1.40
2022-07-25T16:27:56.774Z,1.60
2022-07-25T16:30:24.365Z,1.50
2022-07-25T16:32:51.281Z,1.30
2022-07-25T16:35:18.666Z,1.40
2022-07-25T16:37:45.796Z,1.50
2022-07-25T16:40:13.819Z,1.50
2022-07-25T16:42:41.252Z,1.60
2022-07-25T16:45:09.597Z,1.30
2022-07-25T16:47:36.887Z,1.50
2022-07-25T16:50:04.341Z,1.50
2022-07-25T16:52:31.540Z,1.20
2022-07-25T16:54:58.853Z,1.40
2022-07-25T16:57:25.641Z,1.40
2022-07-25T16:59:55.239Z,1.50
2022-07-25T17:02:27.525Z,1.20
2022-07-25T17:04:56.354Z,1.30
2022-07-25T17:07:23.420Z,1.30
2022-07-25T17:09:50.685Z,1.50
2022-07-25T17:12:17.945Z,1.30
2022-07-25T17:14:45.127Z,1.20
2022-07-25T17:17:12.637Z,1.80
2022-07-25T17:19:39.623Z,1.10
2022-07-25T17:22:08.195Z,1.50
2022-07-25T17:24:35.946Z,1.20
2022-07-25T17:27:03.298Z,1.20
2022-07-25T17:29:30.281Z,1.20
2022-07-25T17:31:57.389Z,1.30
2022-07-25T17:34:26.156Z,1.50
2022-07-25T17:36:54.095Z,1.20
2022-07-25T17:39:21.075Z,1.20
2022-07-25T17:41:48.051Z,1.50
2022-07-25T17:44:15.179Z,1.30
2022-07-25T17:46:42.322Z,1.30
2022-07-25T17:49:09.283Z,1.30
2022-07-25T17:51:36.379Z,1.00
2022-07-25T17:54:03.280Z,1.30
2022-07-25T17:56:30.184Z,1.00
2022-07-25T17:58:57.080Z,1.10
2022-07-25T18:01:23.938Z,1.00
2022-07-25T18:03:50.827Z,1.20
2022-07-25T18:06:17.802Z,1.50
2022-07-25T18:08:44.635Z,1.10
2022-07-25T18:11:11.527Z,0.90
2022-07-25T18:13:38.522Z,1.10
2022-07-25T18:16:05.980Z,1.00
2022-07-25T18:18:32.888Z,0.90
2022-07-25T18:20:59.846Z,0.70
2022-07-25T18:23:28.106Z,0.90
2022-07-25T18:25:54.920Z,1.30
2022-07-25T18:28:22.278Z,1.10
2022-07-25T18:30:52.120Z,1.00
2022-07-25T18:33:19.615Z,1.10
2022-07-25T18:35:46.511Z,1.40
2022-07-25T18:38:13.508Z,1.10
2022-07-25T18:40:40.512Z,1.20
2022-07-25T18:43:08.783Z,1.00
2022-07-25T18:45:37.180Z,1.00
2022-07-25T18:48:05.827Z,1.00
2022-07-25T18:50:32.646Z,1.20
2022-07-25T18:52:59.611Z,1.20
2022-07-25T18:55:26.510Z,1.50
2022-07-25T18:57:53.450Z,1.40
2022-07-25T19:00:20.402Z,1.10
2022-07-25T19:02:47.286Z,1.10
2022-07-25T19:05:14.218Z,1.30
2022-07-25T19:07:41.265Z,0.90
2022-07-25T19:10:09.403Z,0.90
2022-07-25T19:12:36.620Z,1.20
2022-07-25T19:15:04.938Z,1.10
2022-07-25T19:17:36.419Z,1.70
2022-07-25T19:20:04.556Z,1.30
2022-07-25T19:22:31.422Z,1.10
2022-07-25T19:25:00.490Z,1.30
2022-07-25T19:27:28.404Z,1.00
2022-07-25T19:29:55.323Z,1.10
2022-07-25T19:32:22.626Z,1.10
2022-07-25T19:34:49.762Z,1.00
2022-07-25T19:37:16.573Z,1.50
2022-07-25T19:39:43.455Z,1.10
2022-07-25T19:42:11.585Z,1.20
2022-07-25T19:44:38.763Z,1.30
2022-07-25T19:47:11.204Z,1.20
2022-07-25T19:49:39.827Z,1.40
2022-07-25T19:52:07.943Z,1.20
2022-07-25T19:54:35.109Z,1.20
2022-07-25T19:57:02.092Z,1.00
2022-07-25T19:59:29.051Z,1.00
2022-07-25T20:01:56.215Z,1.10
2022-07-25T20:04:23.228Z,1.00
2022-07-25T20:06:50.171Z,0.90
2022-07-25T20:09:17.426Z,1.30
2022-07-25T20:11:44.803Z,0.90
2022-07-25T20:14:11.890Z,1.00
2022-07-25T20:16:39.447Z,1.20
2022-07-25T20:19:09.501Z,0.90
2022-07-25T20:21:38.536Z,0.90
2022-07-25T20:24:06.158Z,1.10
2022-07-25T20:26:33.182Z,1.20
2022-07-25T20:29:00.207Z,1.10
2022-07-25T20:31:27.338Z,1.30
2022-07-25T20:33:54.633Z,1.20
2022-07-25T20:36:21.446Z,1.30
2022-07-25T20:38:48.547Z,1.50
2022-07-25T20:41:16.015Z,1.50
2022-07-25T20:43:42.990Z,1.20
2022-07-25T20:46:09.929Z,1.40
2022-07-25T20:48:38.261Z,1.20
2022-07-25T20:51:05.453Z,1.00
2022-07-25T20:53:32.324Z,1.10
2022-07-25T20:55:59.262Z,1.70
2022-07-25T20:58:26.063Z,1.10
2022-07-25T21:00:52.928Z,1.00
2022-07-25T21:03:19.808Z,1.60
2022-07-25T21:05:46.935Z,2.10
2022-07-25T21:08:14.670Z,1.30
2022-07-25T21:10:41.621Z,1.20
2022-07-25T21:13:08.511Z,1.20
2022-07-25T21:15:35.460Z,1.30
2022-07-25T21:18:02.315Z,1.10
2022-07-25T21:20:29.479Z,1.10
2022-07-25T21:22:56.400Z,1.30
2022-07-25T21:25:23.473Z,1.20
2022-07-25T21:27:50.466Z,1.20
2022-07-25T21:30:17.595Z,1.10
2022-07-25T21:32:44.566Z,1.20
2022-07-25T21:35:11.526Z,1.30
2022-07-25T21:37:39.626Z,0.90
2022-07-25T21:40:07.782Z,1.10
2022-07-25T21:42:35.679Z,1.20
2022-07-25T21:45:03.480Z,1.10
2022-07-25T21:47:30.330Z,1.10
2022-07-25T21:50:19.241Z,1.40
2022-07-25T21:52:52.554Z,1.10
2022-07-25T21:55:21.277Z,1.20
2022-07-25T21:57:50.639Z,1.00
2022-07-25T22:00:18.609Z,1.60
2022-07-25T22:02:46.360Z,1.10
2022-07-25T22:05:15.675Z,1.20
2022-07-25T22:07:43.702Z,1.20
2022-07-25T22:10:13.437Z,1.00
2022-07-25T22:12:40.974Z,1.20
2022-07-25T22:15:12.067Z,1.10
2022-07-25T22:17:49.270Z,1.30
2022-07-25T22:20:18.592Z,0.90
2022-07-25T22:22:47.178Z,1.10
2022-07-25T22:25:15.146Z,1.40
2022-07-25T22:27:42.927Z,1.30
2022-07-25T22:30:16.150Z,1.10
2022-07-25T22:32:47.786Z,1.40
2022-07-25T22:35:15.545Z,1.20
2022-07-25T22:37:44.139Z,1.20
2022-07-25T22:40:12.275Z,1.20
2022-07-25T22:42:39.127Z,1.40
2022-07-25T22:45:07.350Z,1.30
2022-07-25T22:47:34.194Z,1.30
2022-07-25T22:50:01.051Z,1.50
2022-07-25T22:52:28.051Z,1.50
2022-07-25T22:54:54.846Z,1.20
2022-07-25T22:57:21.697Z,1.30
2022-07-25T22:59:49.582Z,1.10
2022-07-25T23:02:16.477Z,1.40
2022-07-25T23:04:43.361Z,1.20
2022-07-25T23:07:10.283Z,1.10
2022-07-25T23:09:37.200Z,1.00
2022-07-25T23:12:04.688Z,1.40
2022-07-25T23:14:31.887Z,1.20
2022-07-25T23:17:17.129Z,1.90
2022-07-25T23:19:49.092Z,1.20
2022-07-25T23:22:17.595Z,1.10
2022-07-25T23:24:45.093Z,1.20
2022-07-25T23:27:13.017Z,1.40
2022-07-25T23:29:40.139Z,1.20
2022-07-25T23:32:07.675Z,1.20
2022-07-25T23:34:35.344Z,1.30
2022-07-25T23:37:03.210Z,1.50
2022-07-25T23:39:31.229Z,1.20
2022-07-25T23:41:59.362Z,1.50
2022-07-25T23:44:26.370Z,1.30
2022-07-25T23:46:57.037Z,1.00
2022-07-25T23:49:24.369Z,1.10
2022-07-25T23:51:51.567Z,1.30
2022-07-25T23:54:18.827Z,1.20
2022-07-25T23:56:45.784Z,1.20
2022-07-25T23:59:12.724Z,1.30
